Kenosha, Wisconsin
Current Conditions -  °F | °C
As of 8:53 AM on Monday 24 Nov 2014 (Local Time) from KENW Reporting Station
Light Rain Light Rain  
Wind Chill: 41°   Ceiling: 400
Heat Index: 46°   Visibility: 1mi
Dew Point: 45°   Wind: 10mph
Humidity: 96%   Direction: 270°W
Pressure: 29.08"   Gusts: NA
Location:  42.59°N, 87.82°W
Report Text: KENW 241453Z 27009KT 1SM -RA BR OVC004 08/07 A2908 RMK AO2 RAB51 CIG 003V009 SLP850 P0000 60000 T00780072 53009
Loading
Personal Weather Stations






























Interactive Weather Map New forecast layout! Learn more

10-Day Weather Forecast

Advertisements
Track Severe Weather on mobile